createdAt,value
2022-10-09T00:00:48.035Z,101801.88
2022-10-09T00:03:17.095Z,101750.16
2022-10-09T00:05:45.214Z,101808.06
2022-10-09T00:08:11.918Z,101798.69
2022-10-09T00:10:42.884Z,101749.16
2022-10-09T00:13:09.544Z,101804.44
2022-10-09T00:15:43.845Z,101807.63
2022-10-09T00:18:12.566Z,101788.47
2022-10-09T00:20:41.423Z,101813.75
2022-10-09T00:23:08.422Z,101816.78
2022-10-09T00:25:38.577Z,101810.94
2022-10-09T00:28:05.179Z,101793.31
2022-10-09T00:30:32.162Z,101816.88
2022-10-09T00:32:58.687Z,101821.34
2022-10-09T00:35:25.186Z,101827.34
2022-10-09T00:37:51.705Z,101789.63
2022-10-09T00:40:18.319Z,101820.44
2022-10-09T00:42:45.785Z,101818.78
2022-10-09T00:45:22.197Z,101829.50
2022-10-09T00:47:54.908Z,101831.75
2022-10-09T00:50:22.571Z,101824.75
2022-10-09T00:52:52.555Z,101828.03
2022-10-09T00:55:19.323Z,101804.91
2022-10-09T00:57:46.473Z,101828.47
2022-10-09T01:00:14.430Z,101816.03
2022-10-09T01:02:41.280Z,101828.88
2022-10-09T01:05:08.937Z,101820.84
2022-10-09T01:07:49.774Z,101778.53
2022-10-09T01:10:16.393Z,101814.16
2022-10-09T01:13:12.133Z,101797.19
2022-10-09T01:15:47.732Z,101820.13
2022-10-09T01:18:32.230Z,101814.75
2022-10-09T01:21:07.868Z,101812.00
2022-10-09T01:23:52.634Z,101814.91
2022-10-09T01:26:50.306Z,101812.44
2022-10-09T01:29:19.183Z,101808.66
2022-10-09T01:31:47.642Z,101806.44
2022-10-09T01:34:16.002Z,101802.50
2022-10-09T01:36:43.525Z,101761.41
2022-10-09T01:39:13.868Z,101811.56
2022-10-09T01:41:40.638Z,101791.75
2022-10-09T01:44:21.684Z,101800.66
2022-10-09T01:46:48.307Z,101793.44
2022-10-09T01:49:35.048Z,101798.69
2022-10-09T01:52:42.150Z,101801.75
2022-10-09T01:55:13.829Z,101795.97
2022-10-09T01:57:45.666Z,101782.34
2022-10-09T02:00:13.105Z,101766.03
2022-10-09T02:02:50.653Z,101743.09
2022-10-09T02:05:25.831Z,101787.03
2022-10-09T02:07:53.444Z,101785.72
2022-10-09T02:10:20.938Z,101790.13
2022-10-09T02:12:52.770Z,101787.47
2022-10-09T02:15:20.637Z,101780.75
2022-10-09T02:17:49.462Z,101773.03
2022-10-09T02:20:25.771Z,101777.19
2022-10-09T02:22:53.470Z,101727.75
2022-10-09T02:25:20.705Z,101780.59
2022-10-09T02:27:47.842Z,101757.97
2022-10-09T02:30:15.218Z,101728.34
2022-10-09T02:32:41.899Z,101770.28
2022-10-09T02:35:08.854Z,101775.47
2022-10-09T02:37:35.865Z,101743.50
2022-10-09T02:40:05.841Z,101767.78
2022-10-09T02:42:34.923Z,101759.41
2022-10-09T02:45:01.838Z,101747.44
2022-10-09T02:47:28.335Z,101766.50
2022-10-09T02:49:56.712Z,101728.16
2022-10-09T02:52:23.162Z,101766.44
2022-10-09T02:54:49.598Z,101718.13
2022-10-09T02:57:16.126Z,101743.59
2022-10-09T02:59:42.571Z,101733.06
2022-10-09T03:02:09.329Z,101771.91
2022-10-09T03:04:35.836Z,101768.22
2022-10-09T03:07:03.172Z,101757.94
2022-10-09T03:09:33.508Z,101770.41
2022-10-09T03:12:00.364Z,101760.91
2022-10-09T03:14:26.859Z,101762.53
2022-10-09T03:16:53.325Z,101749.91
2022-10-09T03:19:19.827Z,101756.22
2022-10-09T03:21:46.353Z,101736.53
2022-10-09T03:24:12.824Z,101743.06
2022-10-09T03:26:39.352Z,101740.50
2022-10-09T03:29:05.860Z,101751.72
2022-10-09T03:31:51.327Z,101773.16
2022-10-09T03:34:19.156Z,101767.63
2022-10-09T03:36:45.746Z,101754.69
2022-10-09T03:39:12.247Z,101769.16
2022-10-09T03:41:38.680Z,101757.16
2022-10-09T03:44:05.292Z,101775.69
2022-10-09T03:46:31.910Z,101766.06
2022-10-09T03:48:58.441Z,101766.06
2022-10-09T03:51:24.879Z,101764.97
2022-10-09T03:53:51.868Z,101714.25
2022-10-09T03:56:18.387Z,101766.97
2022-10-09T03:58:44.865Z,101770.91
2022-10-09T04:01:11.603Z,101730.28
2022-10-09T04:03:38.077Z,101764.06
2022-10-09T04:06:04.888Z,101729.13
2022-10-09T04:08:31.352Z,101751.16
2022-10-09T04:10:58.977Z,101767.75
2022-10-09T04:13:25.674Z,101765.19
2022-10-09T04:15:53.114Z,101711.13
2022-10-09T04:18:19.830Z,101758.72
2022-10-09T04:20:51.115Z,101745.66
2022-10-09T04:23:18.707Z,101771.84
2022-10-09T04:25:45.888Z,101770.41
2022-10-09T04:28:12.866Z,101742.03
2022-10-09T04:30:39.489Z,101722.31
2022-10-09T04:33:11.781Z,101765.09
2022-10-09T04:35:43.578Z,101747.91
2022-10-09T04:38:10.353Z,101758.47
2022-10-09T04:40:37.292Z,101764.72
2022-10-09T04:43:04.234Z,101754.28
2022-10-09T04:45:30.693Z,101632.94
2022-10-09T04:47:57.171Z,101764.72
2022-10-09T04:50:23.747Z,101756.44
2022-10-09T04:52:50.481Z,101733.50
2022-10-09T04:55:17.141Z,101759.66
2022-10-09T04:57:43.620Z,101760.53
2022-10-09T05:00:12.527Z,101743.09
2022-10-09T05:02:39.399Z,101759.03
2022-10-09T05:05:06.126Z,101757.22
2022-10-09T05:07:32.589Z,101760.16
2022-10-09T05:09:59.368Z,101761.00
2022-10-09T05:12:25.878Z,101654.00
2022-10-09T05:14:52.521Z,101751.91
2022-10-09T05:17:22.952Z,101748.78
2022-10-09T05:19:49.882Z,101719.66
2022-10-09T05:22:16.813Z,101750.00
2022-10-09T05:24:43.333Z,101698.25
2022-10-09T05:27:09.800Z,101708.50
2022-10-09T05:29:36.454Z,101750.97
2022-10-09T05:32:03.089Z,101740.53
2022-10-09T05:34:30.896Z,101746.97
2022-10-09T05:36:57.466Z,101750.13
2022-10-09T05:39:23.953Z,101734.63
2022-10-09T05:41:50.568Z,101734.28
2022-10-09T05:44:17.107Z,101730.13
2022-10-09T05:46:43.565Z,101707.13
2022-10-09T05:49:11.954Z,101751.91
2022-10-09T05:51:39.955Z,101760.16
2022-10-09T05:54:06.899Z,101732.75
2022-10-09T05:56:38.139Z,101750.97
2022-10-09T05:59:09.810Z,101748.00
2022-10-09T06:01:42.327Z,101750.97
2022-10-09T06:04:13.607Z,101746.75
2022-10-09T06:06:40.243Z,101740.53
2022-10-09T06:09:08.258Z,101750.66
2022-10-09T06:11:37.230Z,101758.34
2022-10-09T06:14:06.417Z,101729.63
2022-10-09T06:16:35.669Z,101748.03
2022-10-09T06:19:03.197Z,101758.38
2022-10-09T06:21:30.268Z,101719.66
2022-10-09T06:24:01.506Z,101753.41
2022-10-09T06:26:32.212Z,101723.28
2022-10-09T06:29:00.943Z,101755.22
2022-10-09T06:31:30.486Z,101757.44
2022-10-09T06:33:59.490Z,101730.16
2022-10-09T06:36:28.707Z,101766.84
2022-10-09T06:38:55.542Z,101730.22
2022-10-09T06:41:25.165Z,101746.13
2022-10-09T06:43:56.998Z,101768.44
2022-10-09T06:46:26.241Z,101763.94
2022-10-09T06:48:52.973Z,101767.47
2022-10-09T06:51:21.554Z,101736.44
2022-10-09T06:53:52.725Z,101761.31
2022-10-09T06:56:21.929Z,101763.84
2022-10-09T06:58:48.743Z,101672.88
2022-10-09T07:01:16.644Z,101747.66
2022-10-09T07:03:45.107Z,101735.31
2022-10-09T07:06:19.669Z,101774.50
2022-10-09T07:08:49.778Z,101739.41
2022-10-09T07:11:17.637Z,101777.91
2022-10-09T07:13:44.488Z,101734.25
2022-10-09T07:16:11.371Z,101768.97
2022-10-09T07:18:38.155Z,101771.16
2022-10-09T07:21:07.660Z,101712.78
2022-10-09T07:23:35.839Z,101716.59
2022-10-09T07:26:08.412Z,101767.41
2022-10-09T07:28:35.102Z,101719.34
2022-10-09T07:31:05.510Z,101750.31
2022-10-09T07:33:32.139Z,101765.09
2022-10-09T07:36:00.209Z,101724.84
2022-10-09T07:38:27.344Z,101770.81
2022-10-09T07:40:54.234Z,101774.34
2022-10-09T07:43:21.403Z,101748.97
2022-10-09T07:45:48.046Z,101703.97
2022-10-09T07:48:14.537Z,101720.69
2022-10-09T07:50:41.232Z,101768.38
2022-10-09T07:53:08.767Z,101762.88
2022-10-09T07:55:35.784Z,101756.03
2022-10-09T07:58:02.511Z,101729.66
2022-10-09T08:00:28.973Z,101720.94
2022-10-09T08:02:55.660Z,101762.53
2022-10-09T08:05:22.101Z,101757.72
2022-10-09T08:07:48.721Z,101749.41
2022-10-09T08:10:15.404Z,101730.53
2022-10-09T08:12:42.149Z,101758.59
2022-10-09T08:15:09.209Z,101745.22
2022-10-09T08:17:39.897Z,101745.50
2022-10-09T08:20:07.341Z,101747.97
2022-10-09T08:22:33.901Z,101759.41
2022-10-09T08:25:00.476Z,101730.00
2022-10-09T08:27:26.944Z,101760.47
2022-10-09T08:29:53.437Z,101758.94
2022-10-09T08:32:20.351Z,101755.41
2022-10-09T08:34:47.428Z,101762.16
2022-10-09T08:37:13.929Z,101736.53
2022-10-09T08:39:40.374Z,101646.00
2022-10-09T08:42:07.176Z,101748.34
2022-10-09T08:44:39.293Z,101732.88
2022-10-09T08:47:39.635Z,101746.06
2022-10-09T08:50:26.047Z,101731.69
2022-10-09T08:53:04.774Z,101748.41
2022-10-09T08:55:45.887Z,101741.91
2022-10-09T08:58:17.277Z,101681.84
2022-10-09T09:00:53.246Z,101722.31
2022-10-09T09:03:41.613Z,101733.06
2022-10-09T09:06:25.110Z,101726.56
2022-10-09T09:09:36.427Z,101710.34
2022-10-09T09:12:09.091Z,101720.72
2022-10-09T09:14:38.756Z,101711.44
2022-10-09T09:17:15.834Z,101694.88
2022-10-09T09:19:45.433Z,101712.28
2022-10-09T09:22:14.135Z,101719.31
2022-10-09T09:24:45.077Z,101714.16
2022-10-09T09:27:15.224Z,101681.72
2022-10-09T09:30:03.322Z,101698.31
2022-10-09T09:32:31.467Z,101699.13
2022-10-09T09:35:11.802Z,101693.41
2022-10-09T09:37:41.716Z,101653.66
2022-10-09T09:40:36.632Z,101670.81
2022-10-09T09:43:11.452Z,101671.56
2022-10-09T09:45:38.489Z,101652.91
2022-10-09T09:48:12.454Z,101536.22
2022-10-09T09:50:50.678Z,101616.34
2022-10-09T09:53:38.195Z,101611.91
2022-10-09T09:56:05.065Z,101626.53
2022-10-09T09:58:39.446Z,101629.06
2022-10-09T10:01:07.127Z,101604.59
2022-10-09T10:03:35.626Z,101611.94
2022-10-09T10:06:02.233Z,101565.41
2022-10-09T10:08:33.877Z,101599.31
2022-10-09T10:11:03.848Z,101607.97
2022-10-09T10:13:33.005Z,101604.63
2022-10-09T10:16:00.290Z,101536.09
2022-10-09T10:18:29.158Z,101586.84
2022-10-09T10:20:57.759Z,101590.41
2022-10-09T10:23:33.175Z,101549.81
2022-10-09T10:26:07.352Z,101580.75
2022-10-09T10:28:50.222Z,101582.16
2022-10-09T10:31:47.307Z,101581.19
2022-10-09T10:34:32.487Z,101572.06
2022-10-09T10:37:05.126Z,101571.38
2022-10-09T10:39:55.137Z,101567.84
2022-10-09T10:42:25.017Z,101534.66
2022-10-09T10:45:04.205Z,101540.19
2022-10-09T10:47:35.021Z,101560.03
2022-10-09T10:50:01.953Z,101505.38
2022-10-09T10:53:05.667Z,101550.88
2022-10-09T10:55:49.082Z,101527.50
2022-10-09T10:58:49.371Z,101541.44
2022-10-09T11:01:15.909Z,101535.50
2022-10-09T11:04:07.523Z,101543.22
2022-10-09T11:06:52.390Z,101504.69
2022-10-09T11:09:31.655Z,101519.94
2022-10-09T11:12:19.566Z,101530.91
2022-10-09T11:15:10.953Z,101513.56
2022-10-09T11:17:49.903Z,101522.72
2022-10-09T11:20:36.286Z,101508.19
2022-10-09T11:23:25.419Z,101471.56
2022-10-09T11:26:26.046Z,101503.88
2022-10-09T11:28:57.908Z,101472.38
2022-10-09T11:31:42.323Z,101460.72
2022-10-09T11:34:15.681Z,101469.06
2022-10-09T11:36:44.173Z,101443.47
2022-10-09T11:39:26.584Z,101482.19
2022-10-09T11:41:54.507Z,101470.69
2022-10-09T11:45:06.417Z,101469.84
2022-10-09T11:48:08.773Z,101464.84
2022-10-09T11:50:53.266Z,101467.03
2022-10-09T11:53:22.276Z,101445.94
2022-10-09T11:55:48.866Z,101394.81
2022-10-09T11:58:18.749Z,101449.41
2022-10-09T12:00:46.959Z,101408.75
2022-10-09T12:03:38.967Z,101438.16
2022-10-09T12:06:14.377Z,101435.31
2022-10-09T12:08:43.779Z,101399.75
2022-10-09T12:11:17.822Z,101387.31
2022-10-09T12:13:46.109Z,101433.72
2022-10-09T12:16:34.789Z,101434.66
2022-10-09T12:19:35.393Z,101434.75
2022-10-09T12:22:22.880Z,101423.31
2022-10-09T12:24:58.024Z,101425.22
2022-10-09T12:27:28.086Z,101421.72
2022-10-09T12:29:56.390Z,101374.25
2022-10-09T12:32:40.646Z,101256.06
2022-10-09T12:35:29.533Z,101406.91
2022-10-09T12:37:55.970Z,101401.41
2022-10-09T12:40:25.190Z,101391.16
2022-10-09T12:42:53.854Z,101330.78
2022-10-09T12:45:31.055Z,101374.94
2022-10-09T12:48:00.093Z,101342.88
2022-10-09T12:50:33.535Z,101327.00
2022-10-09T12:53:03.032Z,101358.19
2022-10-09T12:55:35.718Z,101344.75
2022-10-09T12:58:08.141Z,101314.97
2022-10-09T13:00:35.360Z,101308.97
2022-10-09T13:03:03.991Z,101277.34
2022-10-09T13:05:38.618Z,101353.00
2022-10-09T13:08:06.167Z,101325.50
2022-10-09T13:10:32.667Z,101289.16
2022-10-09T13:12:59.600Z,101286.09
2022-10-09T13:15:36.970Z,101331.81
2022-10-09T13:18:18.572Z,101339.50
2022-10-09T13:20:45.327Z,101348.38
2022-10-09T13:23:33.361Z,101305.25
2022-10-09T13:26:03.637Z,101335.03
2022-10-09T13:28:30.767Z,101298.50
2022-10-09T13:31:06.315Z,101324.03
2022-10-09T13:33:32.864Z,101310.94
2022-10-09T13:36:01.499Z,101245.53
2022-10-09T13:38:31.407Z,101270.56
2022-10-09T13:41:00.689Z,101274.53
2022-10-09T13:43:28.783Z,101313.81
2022-10-09T13:45:58.026Z,101276.84
2022-10-09T13:48:25.758Z,101232.34
2022-10-09T13:50:52.590Z,101290.66
2022-10-09T13:53:19.270Z,101258.72
2022-10-09T13:55:45.987Z,101209.81
2022-10-09T13:58:12.795Z,101224.13
2022-10-09T14:00:39.419Z,101232.88
2022-10-09T14:03:06.284Z,101273.13
2022-10-09T14:05:32.856Z,101242.53
2022-10-09T14:07:59.419Z,101180.13
2022-10-09T14:10:26.737Z,101261.75
2022-10-09T14:12:53.198Z,101271.28
2022-10-09T14:15:20.030Z,101219.81
2022-10-09T14:17:46.713Z,101238.31
2022-10-09T14:20:13.838Z,101250.00
2022-10-09T14:22:40.601Z,101218.72
2022-10-09T14:25:08.022Z,101201.50
2022-10-09T14:30:06.429Z,101191.69
2022-10-09T14:32:32.976Z,101192.31
2022-10-09T14:34:59.513Z,101221.25
2022-10-09T14:37:42.376Z,101130.84
2022-10-09T14:40:11.123Z,101205.94
2022-10-09T14:42:41.143Z,101122.81
2022-10-09T14:45:11.929Z,101179.53
2022-10-09T14:47:38.407Z,101175.59
2022-10-09T14:50:05.482Z,101156.78
2022-10-09T14:52:32.156Z,101192.69
2022-10-09T14:54:58.701Z,101192.69
2022-10-09T14:57:25.239Z,101204.03
2022-10-09T14:59:52.402Z,101198.56
2022-10-09T15:02:19.179Z,101150.31
2022-10-09T15:04:45.827Z,101191.19
2022-10-09T15:07:12.359Z,101128.38
2022-10-09T15:09:39.135Z,101136.34
2022-10-09T15:12:05.727Z,101069.94
2022-10-09T15:14:32.167Z,101162.66
2022-10-09T15:16:58.978Z,101124.84
2022-10-09T15:19:25.546Z,101122.69
2022-10-09T15:21:52.055Z,101127.06
2022-10-09T15:24:18.764Z,101149.19
2022-10-09T15:26:45.337Z,101126.91
2022-10-09T15:29:12.123Z,101135.94
2022-10-09T15:31:40.406Z,101150.13
2022-10-09T15:34:08.754Z,101145.13
2022-10-09T15:36:37.849Z,101126.81
2022-10-09T15:39:07.262Z,101110.50
2022-10-09T15:41:36.242Z,101091.38
2022-10-09T15:44:05.505Z,101110.44
2022-10-09T15:46:32.400Z,101147.41
2022-10-09T15:48:58.961Z,101070.00
2022-10-09T15:51:26.079Z,101046.94
2022-10-09T15:53:53.168Z,101135.41
2022-10-09T15:56:22.394Z,101101.59
2022-10-09T15:58:49.771Z,101072.31
2022-10-09T16:01:17.048Z,101130.22
2022-10-09T16:03:44.543Z,101115.00
2022-10-09T16:06:13.615Z,101069.28
2022-10-09T16:08:40.785Z,101108.72
2022-10-09T16:11:10.436Z,101117.59
2022-10-09T16:13:39.309Z,101068.72
2022-10-09T16:16:07.575Z,101094.03
2022-10-09T16:18:36.947Z,101061.56
2022-10-09T16:21:19.376Z,101105.41
2022-10-09T16:23:46.558Z,101113.16
2022-10-09T16:26:17.025Z,101121.53
2022-10-09T16:28:44.122Z,101122.38
2022-10-09T16:31:24.758Z,101118.16
2022-10-09T16:33:51.935Z,101095.28
2022-10-09T16:36:18.812Z,101110.59
2022-10-09T16:38:45.733Z,101038.97
2022-10-09T16:41:17.958Z,101095.03
2022-10-09T16:43:46.137Z,101058.81
2022-10-09T16:46:18.667Z,101081.78
2022-10-09T16:48:45.536Z,101088.69
2022-10-09T16:51:15.669Z,101114.59
2022-10-09T16:53:42.450Z,101107.75
2022-10-09T16:56:11.738Z,101109.09
2022-10-09T16:58:38.895Z,101093.22
2022-10-09T17:01:09.580Z,101097.91
2022-10-09T17:03:36.666Z,101094.28
2022-10-09T17:06:09.841Z,101054.47
2022-10-09T17:08:36.453Z,101072.75
2022-10-09T17:11:09.864Z,101096.72
2022-10-09T17:13:36.993Z,101085.72
2022-10-09T17:16:07.785Z,101109.19
2022-10-09T17:18:34.966Z,101078.47
2022-10-09T17:21:06.506Z,101100.94
2022-10-09T17:23:33.601Z,101096.91
2022-10-09T17:26:15.447Z,101066.38
2022-10-09T17:28:43.038Z,101052.09
2022-10-09T17:31:14.363Z,101016.53
2022-10-09T17:33:44.877Z,101064.72
2022-10-09T17:36:23.058Z,101066.84
2022-10-09T17:38:53.056Z,101080.56
2022-10-09T17:41:21.596Z,101095.28
2022-10-09T17:43:48.062Z,101074.25
2022-10-09T17:46:17.563Z,101087.53
2022-10-09T17:48:46.967Z,101090.53
2022-10-09T17:51:16.130Z,101065.59
2022-10-09T17:53:42.771Z,101070.81
2022-10-09T17:56:09.380Z,101094.56
2022-10-09T17:58:36.075Z,101027.00
2022-10-09T18:01:07.651Z,101092.91
2022-10-09T18:03:38.429Z,101046.28
2022-10-09T18:06:12.398Z,101078.16
2022-10-09T18:08:39.766Z,101052.50
2022-10-09T18:11:09.508Z,101033.44
2022-10-09T18:13:37.528Z,101033.25
2022-10-09T18:16:16.297Z,101040.06
2022-10-09T18:18:42.945Z,101079.59
2022-10-09T18:21:11.899Z,101055.97
2022-10-09T18:23:39.225Z,101014.09
2022-10-09T18:26:10.592Z,101072.97
2022-10-09T18:28:37.659Z,101036.81
2022-10-09T18:31:08.759Z,101078.16
2022-10-09T18:33:36.003Z,101071.84
2022-10-09T18:36:11.843Z,101021.94
2022-10-09T18:38:38.367Z,101062.69
2022-10-09T18:41:08.338Z,101066.44
2022-10-09T18:43:34.928Z,101012.09
2022-10-09T18:46:01.795Z,101007.16
2022-10-09T18:48:33.729Z,101051.47
2022-10-09T18:51:01.021Z,100922.25
2022-10-09T18:53:29.121Z,101000.66
2022-10-09T18:55:56.009Z,101021.34
2022-10-09T18:58:22.961Z,101016.44
2022-10-09T19:00:49.771Z,100977.94
2022-10-09T19:03:16.433Z,101032.31
2022-10-09T19:05:46.104Z,101018.28
2022-10-09T19:08:13.222Z,101047.13
2022-10-09T19:10:39.757Z,101015.19
2022-10-09T19:13:06.259Z,101025.44
2022-10-09T19:15:32.753Z,101023.91
2022-10-09T19:17:59.243Z,101007.47
2022-10-09T19:20:28.910Z,100978.41
2022-10-09T19:22:55.394Z,101041.28
2022-10-09T19:25:22.027Z,101039.84
2022-10-09T19:27:48.861Z,100986.69
2022-10-09T19:30:15.542Z,100991.44
2022-10-09T19:32:42.343Z,100995.94
2022-10-09T19:35:09.247Z,101004.41
2022-10-09T19:37:35.842Z,101030.00
2022-10-09T19:40:02.776Z,100958.59
2022-10-09T19:42:29.233Z,101022.03
2022-10-09T19:44:55.740Z,100976.47
2022-10-09T19:47:23.652Z,100923.41
2022-10-09T19:49:50.149Z,101026.22
2022-10-09T19:52:17.097Z,101032.28
2022-10-09T19:54:43.714Z,100993.03
2022-10-09T19:57:10.747Z,100968.16
2022-10-09T19:59:37.298Z,101016.69
2022-10-09T20:02:04.227Z,100941.97
2022-10-09T20:04:31.146Z,100970.00
2022-10-09T20:06:57.670Z,100997.22
2022-10-09T20:09:24.246Z,100968.25
2022-10-09T20:11:50.935Z,100904.66
2022-10-09T20:14:17.377Z,101025.94
2022-10-09T20:16:43.899Z,100966.97
2022-10-09T20:19:10.753Z,101020.56
2022-10-09T20:21:37.257Z,100980.03
2022-10-09T20:24:04.218Z,101010.34
2022-10-09T20:26:33.054Z,101011.69
2022-10-09T20:28:59.885Z,101016.53
2022-10-09T20:31:27.518Z,101013.44
2022-10-09T20:33:54.870Z,101010.59
2022-10-09T20:36:22.808Z,101004.09
2022-10-09T20:38:50.122Z,101003.38
2022-10-09T20:41:17.052Z,100934.84
2022-10-09T20:43:43.727Z,101009.03
2022-10-09T20:46:13.741Z,101001.56
2022-10-09T20:48:41.439Z,101000.59
2022-10-09T20:51:15.368Z,101008.56
2022-10-09T20:53:41.968Z,100982.13
2022-10-09T20:56:09.940Z,100990.97
2022-10-09T20:58:37.748Z,100969.03
2022-10-09T21:01:06.218Z,100929.31
2022-10-09T21:03:34.139Z,100983.84
2022-10-09T21:06:07.985Z,100971.38
2022-10-09T21:08:35.048Z,100972.84
2022-10-09T21:11:05.585Z,100923.78
2022-10-09T21:13:32.082Z,100984.69
2022-10-09T21:15:58.663Z,100964.25
2022-10-09T21:18:25.350Z,100914.63
2022-10-09T21:20:51.858Z,100954.09
2022-10-09T21:23:19.083Z,100977.94
2022-10-09T21:25:50.851Z,100988.41
2022-10-09T21:28:22.125Z,100947.50
2022-10-09T21:30:49.648Z,100974.88
2022-10-09T21:33:17.444Z,100900.88
2022-10-09T21:35:46.887Z,100971.16
2022-10-09T21:38:16.295Z,100961.84
2022-10-09T21:40:43.138Z,100975.91
2022-10-09T21:43:10.551Z,100975.44
2022-10-09T21:45:38.086Z,100935.22
2022-10-09T21:48:05.128Z,100949.75
2022-10-09T21:50:33.065Z,100943.00
2022-10-09T21:53:00.275Z,100799.03
2022-10-09T21:55:27.003Z,100910.44
2022-10-09T21:57:53.595Z,100909.66
2022-10-09T22:00:20.484Z,100947.03
2022-10-09T22:02:47.764Z,100870.53
2022-10-09T22:05:14.670Z,100894.81
2022-10-09T22:07:41.151Z,100915.97
2022-10-09T22:10:08.130Z,100886.00
2022-10-09T22:12:34.598Z,100927.78
2022-10-09T22:15:01.212Z,100913.94
2022-10-09T22:17:27.789Z,100940.31
2022-10-09T22:19:54.357Z,100926.19
2022-10-09T22:22:23.706Z,100932.97
2022-10-09T22:24:51.470Z,100936.22
2022-10-09T22:27:19.320Z,100879.75
2022-10-09T22:29:46.044Z,100932.81
2022-10-09T22:32:12.591Z,100905.91
2022-10-09T22:34:39.131Z,100862.66
2022-10-09T22:37:06.124Z,100859.34
2022-10-09T22:39:32.574Z,100847.66
2022-10-09T22:41:59.067Z,100869.31
2022-10-09T22:44:25.509Z,100915.81
2022-10-09T22:46:52.305Z,100845.75
2022-10-09T22:49:18.752Z,100836.56
2022-10-09T22:51:45.935Z,100890.75
2022-10-09T22:54:13.310Z,100885.03
2022-10-09T22:56:44.335Z,100902.69
2022-10-09T22:59:14.147Z,100870.78
2022-10-09T23:01:45.996Z,100896.03
2022-10-09T23:04:13.462Z,100857.44
2022-10-09T23:06:40.297Z,100877.06
2022-10-09T23:09:08.184Z,100832.50
2022-10-09T23:11:35.108Z,100888.13
2022-10-09T23:14:02.338Z,100872.19
2022-10-09T23:16:30.031Z,100878.63
2022-10-09T23:18:58.317Z,100883.72
2022-10-09T23:21:25.104Z,100813.78
2022-10-09T23:23:52.652Z,100837.59
2022-10-09T23:26:22.512Z,100878.88
2022-10-09T23:28:51.061Z,100875.66
2022-10-09T23:31:17.865Z,100865.00
2022-10-09T23:33:45.057Z,100866.50
2022-10-09T23:36:14.200Z,100862.72
2022-10-09T23:38:40.976Z,100795.13
2022-10-09T23:41:10.700Z,100857.34
2022-10-09T23:43:38.815Z,100851.75
2022-10-09T23:46:07.048Z,100840.91
2022-10-09T23:48:34.349Z,100853.25
2022-10-09T23:51:00.965Z,100833.63
2022-10-09T23:53:27.957Z,100850.50
2022-10-09T23:55:55.055Z,100842.72
2022-10-09T23:58:22.486Z,100847.78
